sensor_id;sensor_type;location;lat;lon;timestamp;P1;durP1;ratioP1;P2;durP2;ratioP2
20870;SDS011;10595;51.218;3.452;2022-07-29T00:00:26;6.50;;;2.00;;
20870;SDS011;10595;51.218;3.452;2022-07-29T00:01:18;3.13;;;2.00;;
20870;SDS011;10595;51.218;3.452;2022-07-29T00:02:08;7.23;;;2.03;;
20870;SDS011;10595;51.218;3.452;2022-07-29T00:03:00;2.73;;;1.90;;
20870;SDS011;10595;51.218;3.452;2022-07-29T00:03:50;5.47;;;1.70;;
20870;SDS011;10595;51.218;3.452;2022-07-29T00:04:42;3.90;;;1.77;;
20870;SDS011;10595;51.218;3.452;2022-07-29T00:05:32;3.87;;;1.83;;
20870;SDS011;10595;51.218;3.452;2022-07-29T00:06:24;4.47;;;2.20;;
20870;SDS011;10595;51.218;3.452;2022-07-29T00:07:15;4.47;;;1.73;;
20870;SDS011;10595;51.218;3.452;2022-07-29T00:08:07;5.73;;;1.90;;
20870;SDS011;10595;51.218;3.452;2022-07-29T00:08:57;3.87;;;1.97;;
20870;SDS011;10595;51.218;3.452;2022-07-29T00:09:49;2.53;;;1.80;;
20870;SDS011;10595;51.218;3.452;2022-07-29T00:10:39;3.97;;;1.83;;
20870;SDS011;10595;51.218;3.452;2022-07-29T00:11:31;6.30;;;1.97;;
20870;SDS011;10595;51.218;3.452;2022-07-29T00:12:22;3.27;;;1.60;;
20870;SDS011;10595;51.218;3.452;2022-07-29T00:13:14;4.03;;;2.00;;
20870;SDS011;10595;51.218;3.452;2022-07-29T00:14:06;5.47;;;1.90;;
20870;SDS011;10595;51.218;3.452;2022-07-29T00:14:57;3.17;;;1.90;;
20870;SDS011;10595;51.218;3.452;2022-07-29T00:15:48;7.33;;;2.00;;
20870;SDS011;10595;51.218;3.452;2022-07-29T00:16:39;3.80;;;1.80;;
20870;SDS011;10595;51.218;3.452;2022-07-29T00:17:30;4.77;;;2.20;;
20870;SDS011;10595;51.218;3.452;2022-07-29T00:18:21;2.17;;;1.53;;
20870;SDS011;10595;51.218;3.452;2022-07-29T00:19:13;3.53;;;1.70;;
20870;SDS011;10595;51.218;3.452;2022-07-29T00:20:05;2.87;;;1.80;;
20870;SDS011;10595;51.218;3.452;2022-07-29T00:20:55;3.50;;;1.73;;
20870;SDS011;10595;51.218;3.452;2022-07-29T00:21:47;5.27;;;1.90;;
20870;SDS011;10595;51.218;3.452;2022-07-29T00:22:37;4.57;;;2.00;;
20870;SDS011;10595;51.218;3.452;2022-07-29T00:23:29;3.37;;;1.90;;
20870;SDS011;10595;51.218;3.452;2022-07-29T00:24:20;3.87;;;1.57;;
20870;SDS011;10595;51.218;3.452;2022-07-29T00:25:12;4.63;;;1.90;;
20870;SDS011;10595;51.218;3.452;2022-07-29T00:26:02;3.77;;;1.70;;
20870;SDS011;10595;51.218;3.452;2022-07-29T00:26:54;5.00;;;1.90;;
20870;SDS011;10595;51.218;3.452;2022-07-29T00:27:44;4.60;;;1.57;;
20870;SDS011;10595;51.218;3.452;2022-07-29T00:28:36;4.93;;;1.50;;
20870;SDS011;10595;51.218;3.452;2022-07-29T00:29:28;5.17;;;2.00;;
20870;SDS011;10595;51.218;3.452;2022-07-29T00:30:20;4.67;;;1.40;;
20870;SDS011;10595;51.218;3.452;2022-07-29T00:31:10;6.23;;;1.80;;
20870;SDS011;10595;51.218;3.452;2022-07-29T00:32:02;3.73;;;1.67;;
20870;SDS011;10595;51.218;3.452;2022-07-29T00:32:52;4.03;;;1.80;;
20870;SDS011;10595;51.218;3.452;2022-07-29T00:33:44;1.93;;;1.60;;
20870;SDS011;10595;51.218;3.452;2022-07-29T00:34:34;4.80;;;1.67;;
20870;SDS011;10595;51.218;3.452;2022-07-29T00:35:44;2.63;;;1.93;;
20870;SDS011;10595;51.218;3.452;2022-07-29T00:36:34;3.37;;;1.43;;
20870;SDS011;10595;51.218;3.452;2022-07-29T00:37:25;2.50;;;1.33;;
20870;SDS011;10595;51.218;3.452;2022-07-29T00:38:17;3.20;;;1.43;;
20870;SDS011;10595;51.218;3.452;2022-07-29T00:39:09;7.10;;;1.83;;
20870;SDS011;10595;51.218;3.452;2022-07-29T00:40:00;4.77;;;1.60;;
20870;SDS011;10595;51.218;3.452;2022-07-29T00:40:51;3.90;;;1.33;;
20870;SDS011;10595;51.218;3.452;2022-07-29T00:41:42;3.33;;;1.73;;
20870;SDS011;10595;51.218;3.452;2022-07-29T00:42:40;4.97;;;1.40;;
20870;SDS011;10595;51.218;3.452;2022-07-29T00:43:31;2.20;;;1.57;;
20870;SDS011;10595;51.218;3.452;2022-07-29T00:44:22;3.67;;;1.50;;
20870;SDS011;10595;51.218;3.452;2022-07-29T00:45:15;2.30;;;1.50;;
20870;SDS011;10595;51.218;3.452;2022-07-29T00:46:06;2.50;;;1.40;;
20870;SDS011;10595;51.218;3.452;2022-07-29T00:46:57;3.87;;;1.73;;
20870;SDS011;10595;51.218;3.452;2022-07-29T00:47:48;2.40;;;1.30;;
20870;SDS011;10595;51.218;3.452;2022-07-29T00:48:39;3.83;;;1.43;;
20870;SDS011;10595;51.218;3.452;2022-07-29T00:49:30;4.10;;;1.60;;
20870;SDS011;10595;51.218;3.452;2022-07-29T00:50:21;5.97;;;1.53;;
20870;SDS011;10595;51.218;3.452;2022-07-29T00:51:12;6.00;;;1.80;;
20870;SDS011;10595;51.218;3.452;2022-07-29T00:52:04;5.20;;;1.90;;
20870;SDS011;10595;51.218;3.452;2022-07-29T00:52:56;4.00;;;1.57;;
20870;SDS011;10595;51.218;3.452;2022-07-29T00:53:46;7.00;;;1.90;;
20870;SDS011;10595;51.218;3.452;2022-07-29T00:54:41;5.23;;;2.03;;
20870;SDS011;10595;51.218;3.452;2022-07-29T00:55:31;3.30;;;1.60;;
20870;SDS011;10595;51.218;3.452;2022-07-29T00:56:23;4.03;;;1.30;;
20870;SDS011;10595;51.218;3.452;2022-07-29T00:57:13;5.27;;;1.90;;
20870;SDS011;10595;51.218;3.452;2022-07-29T00:58:04;6.07;;;1.80;;
20870;SDS011;10595;51.218;3.452;2022-07-29T00:58:56;2.57;;;1.53;;
20870;SDS011;10595;51.218;3.452;2022-07-29T00:59:48;2.10;;;1.40;;
20870;SDS011;10595;51.218;3.452;2022-07-29T01:00:40;2.30;;;1.50;;
20870;SDS011;10595;51.218;3.452;2022-07-29T01:01:31;3.53;;;1.60;;
20870;SDS011;10595;51.218;3.452;2022-07-29T01:02:22;5.33;;;1.80;;
20870;SDS011;10595;51.218;3.452;2022-07-29T01:03:14;2.43;;;1.43;;
20870;SDS011;10595;51.218;3.452;2022-07-29T01:04:05;3.23;;;1.70;;
20870;SDS011;10595;51.218;3.452;2022-07-29T01:04:56;5.87;;;1.63;;
20870;SDS011;10595;51.218;3.452;2022-07-29T01:05:47;3.30;;;1.47;;
20870;SDS011;10595;51.218;3.452;2022-07-29T01:06:39;3.00;;;1.70;;
20870;SDS011;10595;51.218;3.452;2022-07-29T01:07:29;6.77;;;1.73;;
20870;SDS011;10595;51.218;3.452;2022-07-29T01:08:21;4.13;;;1.53;;
20870;SDS011;10595;51.218;3.452;2022-07-29T01:09:13;4.27;;;1.83;;
20870;SDS011;10595;51.218;3.452;2022-07-29T01:10:05;4.83;;;1.60;;
20870;SDS011;10595;51.218;3.452;2022-07-29T01:10:56;7.00;;;2.00;;
20870;SDS011;10595;51.218;3.452;2022-07-29T01:11:48;4.90;;;2.00;;
20870;SDS011;10595;51.218;3.452;2022-07-29T01:12:39;4.67;;;1.87;;
20870;SDS011;10595;51.218;3.452;2022-07-29T01:13:31;3.37;;;1.80;;
20870;SDS011;10595;51.218;3.452;2022-07-29T01:14:23;3.43;;;1.50;;
20870;SDS011;10595;51.218;3.452;2022-07-29T01:15:14;2.13;;;1.60;;
20870;SDS011;10595;51.218;3.452;2022-07-29T01:16:08;3.07;;;1.77;;
20870;SDS011;10595;51.218;3.452;2022-07-29T01:17:04;4.37;;;1.87;;
20870;SDS011;10595;51.218;3.452;2022-07-29T01:17:58;3.83;;;2.07;;
20870;SDS011;10595;51.218;3.452;2022-07-29T01:18:53;5.47;;;1.80;;
20870;SDS011;10595;51.218;3.452;2022-07-29T01:19:47;2.73;;;1.83;;
20870;SDS011;10595;51.218;3.452;2022-07-29T01:20:44;3.23;;;1.83;;
20870;SDS011;10595;51.218;3.452;2022-07-29T01:21:43;3.53;;;1.70;;
20870;SDS011;10595;51.218;3.452;2022-07-29T01:22:42;4.63;;;1.60;;
20870;SDS011;10595;51.218;3.452;2022-07-29T01:23:48;4.03;;;2.00;;
20870;SDS011;10595;51.218;3.452;2022-07-29T01:24:45;5.97;;;1.73;;
20870;SDS011;10595;51.218;3.452;2022-07-29T01:26:47;6.07;;;2.03;;
20870;SDS011;10595;51.218;3.452;2022-07-29T01:27:45;8.20;;;2.07;;
20870;SDS011;10595;51.218;3.452;2022-07-29T01:28:46;2.80;;;1.80;;
20870;SDS011;10595;51.218;3.452;2022-07-29T01:29:38;6.43;;;2.10;;
20870;SDS011;10595;51.218;3.452;2022-07-29T01:30:31;3.00;;;1.87;;
20870;SDS011;10595;51.218;3.452;2022-07-29T01:31:24;5.17;;;1.87;;
20870;SDS011;10595;51.218;3.452;2022-07-29T01:32:18;7.43;;;1.83;;
20870;SDS011;10595;51.218;3.452;2022-07-29T01:33:11;4.20;;;2.00;;
20870;SDS011;10595;51.218;3.452;2022-07-29T01:34:25;4.50;;;1.60;;
20870;SDS011;10595;51.218;3.452;2022-07-29T01:35:18;2.80;;;1.60;;
20870;SDS011;10595;51.218;3.452;2022-07-29T01:36:11;3.47;;;1.80;;
20870;SDS011;10595;51.218;3.452;2022-07-29T01:37:06;5.23;;;2.17;;
20870;SDS011;10595;51.218;3.452;2022-07-29T01:38:00;5.93;;;2.00;;
20870;SDS011;10595;51.218;3.452;2022-07-29T01:38:54;4.13;;;1.53;;
20870;SDS011;10595;51.218;3.452;2022-07-29T01:39:45;2.13;;;1.70;;
20870;SDS011;10595;51.218;3.452;2022-07-29T01:40:39;3.03;;;2.10;;
20870;SDS011;10595;51.218;3.452;2022-07-29T01:41:31;5.53;;;1.90;;
20870;SDS011;10595;51.218;3.452;2022-07-29T01:42:26;4.53;;;2.00;;
20870;SDS011;10595;51.218;3.452;2022-07-29T01:43:18;2.23;;;1.90;;
20870;SDS011;10595;51.218;3.452;2022-07-29T01:44:13;3.30;;;1.97;;
20870;SDS011;10595;51.218;3.452;2022-07-29T01:45:06;3.30;;;1.70;;
20870;SDS011;10595;51.218;3.452;2022-07-29T01:46:01;4.50;;;1.97;;
20870;SDS011;10595;51.218;3.452;2022-07-29T01:46:54;2.90;;;1.83;;
20870;SDS011;10595;51.218;3.452;2022-07-29T01:47:49;5.47;;;2.10;;
20870;SDS011;10595;51.218;3.452;2022-07-29T01:48:45;4.43;;;1.77;;
20870;SDS011;10595;51.218;3.452;2022-07-29T01:49:39;3.87;;;2.03;;
20870;SDS011;10595;51.218;3.452;2022-07-29T01:50:32;5.40;;;1.90;;
20870;SDS011;10595;51.218;3.452;2022-07-29T01:51:25;4.23;;;2.10;;
20870;SDS011;10595;51.218;3.452;2022-07-29T01:52:20;3.37;;;2.03;;
20870;SDS011;10595;51.218;3.452;2022-07-29T01:53:13;4.83;;;2.00;;
20870;SDS011;10595;51.218;3.452;2022-07-29T01:54:07;3.37;;;2.07;;
20870;SDS011;10595;51.218;3.452;2022-07-29T01:55:01;3.53;;;2.00;;
20870;SDS011;10595;51.218;3.452;2022-07-29T01:55:53;4.97;;;2.00;;
20870;SDS011;10595;51.218;3.452;2022-07-29T01:56:47;4.73;;;2.17;;
20870;SDS011;10595;51.218;3.452;2022-07-29T01:57:38;7.00;;;2.60;;
20870;SDS011;10595;51.218;3.452;2022-07-29T01:58:30;7.10;;;2.43;;
20870;SDS011;10595;51.218;3.452;2022-07-29T01:59:22;4.97;;;2.17;;
20870;SDS011;10595;51.218;3.452;2022-07-29T02:00:15;3.03;;;2.20;;
20870;SDS011;10595;51.218;3.452;2022-07-29T02:01:06;3.60;;;2.00;;
20870;SDS011;10595;51.218;3.452;2022-07-29T02:01:59;7.23;;;2.50;;
20870;SDS011;10595;51.218;3.452;2022-07-29T02:02:50;4.00;;;1.93;;
20870;SDS011;10595;51.218;3.452;2022-07-29T02:03:44;3.50;;;2.10;;
20870;SDS011;10595;51.218;3.452;2022-07-29T02:04:35;4.03;;;1.90;;
20870;SDS011;10595;51.218;3.452;2022-07-29T02:05:28;2.73;;;1.90;;
20870;SDS011;10595;51.218;3.452;2022-07-29T02:06:19;3.90;;;2.07;;
20870;SDS011;10595;51.218;3.452;2022-07-29T02:07:13;3.77;;;2.13;;
20870;SDS011;10595;51.218;3.452;2022-07-29T02:08:04;4.50;;;1.80;;
20870;SDS011;10595;51.218;3.452;2022-07-29T02:08:56;3.87;;;2.37;;
20870;SDS011;10595;51.218;3.452;2022-07-29T02:09:47;4.17;;;2.30;;
20870;SDS011;10595;51.218;3.452;2022-07-29T02:10:40;5.63;;;2.33;;
20870;SDS011;10595;51.218;3.452;2022-07-29T02:11:32;5.23;;;2.40;;
20870;SDS011;10595;51.218;3.452;2022-07-29T02:12:25;7.20;;;2.33;;
20870;SDS011;10595;51.218;3.452;2022-07-29T02:13:16;4.47;;;2.53;;
20870;SDS011;10595;51.218;3.452;2022-07-29T02:14:08;5.87;;;2.07;;
20870;SDS011;10595;51.218;3.452;2022-07-29T02:15:02;3.90;;;2.50;;
20870;SDS011;10595;51.218;3.452;2022-07-29T02:15:55;5.37;;;2.23;;
20870;SDS011;10595;51.218;3.452;2022-07-29T02:16:45;5.43;;;1.90;;
20870;SDS011;10595;51.218;3.452;2022-07-29T02:17:39;4.47;;;2.10;;
20870;SDS011;10595;51.218;3.452;2022-07-29T02:18:31;5.33;;;2.03;;
20870;SDS011;10595;51.218;3.452;2022-07-29T02:19:23;4.40;;;1.93;;
20870;SDS011;10595;51.218;3.452;2022-07-29T02:20:16;4.37;;;2.63;;
20870;SDS011;10595;51.218;3.452;2022-07-29T02:21:07;5.43;;;2.40;;
20870;SDS011;10595;51.218;3.452;2022-07-29T02:21:58;5.30;;;2.17;;
20870;SDS011;10595;51.218;3.452;2022-07-29T02:22:51;6.00;;;2.20;;
20870;SDS011;10595;51.218;3.452;2022-07-29T02:23:42;2.77;;;1.90;;
20870;SDS011;10595;51.218;3.452;2022-07-29T02:24:35;7.07;;;2.17;;
20870;SDS011;10595;51.218;3.452;2022-07-29T02:25:27;6.03;;;2.50;;
20870;SDS011;10595;51.218;3.452;2022-07-29T02:26:19;4.40;;;2.10;;
20870;SDS011;10595;51.218;3.452;2022-07-29T02:27:10;2.77;;;1.80;;
20870;SDS011;10595;51.218;3.452;2022-07-29T02:28:03;2.63;;;1.93;;
20870;SDS011;10595;51.218;3.452;2022-07-29T02:28:55;2.93;;;2.07;;
20870;SDS011;10595;51.218;3.452;2022-07-29T02:29:47;4.80;;;1.93;;
20870;SDS011;10595;51.218;3.452;2022-07-29T02:30:40;2.67;;;2.30;;
20870;SDS011;10595;51.218;3.452;2022-07-29T02:31:33;7.10;;;2.30;;
20870;SDS011;10595;51.218;3.452;2022-07-29T02:32:24;2.97;;;2.23;;
20870;SDS011;10595;51.218;3.452;2022-07-29T02:33:17;6.13;;;2.40;;
20870;SDS011;10595;51.218;3.452;2022-07-29T02:34:08;3.43;;;2.40;;
20870;SDS011;10595;51.218;3.452;2022-07-29T02:35:00;5.30;;;2.60;;
20870;SDS011;10595;51.218;3.452;2022-07-29T02:35:51;3.20;;;2.30;;
20870;SDS011;10595;51.218;3.452;2022-07-29T02:36:43;6.50;;;2.50;;
20870;SDS011;10595;51.218;3.452;2022-07-29T02:37:34;4.90;;;2.30;;
20870;SDS011;10595;51.218;3.452;2022-07-29T02:38:27;7.07;;;2.70;;
20870;SDS011;10595;51.218;3.452;2022-07-29T02:39:39;4.83;;;2.20;;
20870;SDS011;10595;51.218;3.452;2022-07-29T02:40:32;3.63;;;1.93;;
20870;SDS011;10595;51.218;3.452;2022-07-29T02:41:25;2.47;;;2.07;;
20870;SDS011;10595;51.218;3.452;2022-07-29T02:42:17;3.93;;;2.13;;
20870;SDS011;10595;51.218;3.452;2022-07-29T02:43:08;3.60;;;2.13;;
20870;SDS011;10595;51.218;3.452;2022-07-29T02:44:02;2.40;;;2.00;;
20870;SDS011;10595;51.218;3.452;2022-07-29T02:44:53;3.23;;;2.20;;
20870;SDS011;10595;51.218;3.452;2022-07-29T02:45:47;5.53;;;2.33;;
20870;SDS011;10595;51.218;3.452;2022-07-29T02:46:41;4.03;;;2.40;;
20870;SDS011;10595;51.218;3.452;2022-07-29T02:47:34;4.50;;;2.30;;
20870;SDS011;10595;51.218;3.452;2022-07-29T02:48:27;3.73;;;2.30;;
20870;SDS011;10595;51.218;3.452;2022-07-29T02:49:27;5.70;;;2.80;;
20870;SDS011;10595;51.218;3.452;2022-07-29T02:50:21;3.80;;;2.40;;
20870;SDS011;10595;51.218;3.452;2022-07-29T02:51:17;6.03;;;2.80;;
20870;SDS011;10595;51.218;3.452;2022-07-29T02:52:12;3.63;;;2.27;;
20870;SDS011;10595;51.218;3.452;2022-07-29T02:53:08;3.60;;;2.30;;
20870;SDS011;10595;51.218;3.452;2022-07-29T02:53:59;3.20;;;2.20;;
20870;SDS011;10595;51.218;3.452;2022-07-29T02:54:54;5.87;;;2.70;;
20870;SDS011;10595;51.218;3.452;2022-07-29T02:55:48;5.10;;;2.60;;
20870;SDS011;10595;51.218;3.452;2022-07-29T02:56:40;4.33;;;2.53;;
20870;SDS011;10595;51.218;3.452;2022-07-29T02:57:33;6.03;;;3.07;;
20870;SDS011;10595;51.218;3.452;2022-07-29T02:58:25;3.80;;;2.40;;
20870;SDS011;10595;51.218;3.452;2022-07-29T02:59:18;3.10;;;2.43;;
20870;SDS011;10595;51.218;3.452;2022-07-29T03:00:12;4.67;;;3.00;;
20870;SDS011;10595;51.218;3.452;2022-07-29T03:01:08;5.97;;;2.50;;
20870;SDS011;10595;51.218;3.452;2022-07-29T03:02:00;3.10;;;2.30;;
20870;SDS011;10595;51.218;3.452;2022-07-29T03:02:53;4.60;;;2.50;;
20870;SDS011;10595;51.218;3.452;2022-07-29T03:03:45;7.03;;;2.90;;
20870;SDS011;10595;51.218;3.452;2022-07-29T03:04:37;7.13;;;2.87;;
20870;SDS011;10595;51.218;3.452;2022-07-29T03:05:31;4.23;;;2.70;;
20870;SDS011;10595;51.218;3.452;2022-07-29T03:06:22;5.40;;;2.50;;
20870;SDS011;10595;51.218;3.452;2022-07-29T03:07:14;5.70;;;2.43;;
20870;SDS011;10595;51.218;3.452;2022-07-29T03:08:06;6.33;;;2.53;;
20870;SDS011;10595;51.218;3.452;2022-07-29T03:08:58;6.00;;;2.43;;
20870;SDS011;10595;51.218;3.452;2022-07-29T03:09:49;3.03;;;2.40;;
20870;SDS011;10595;51.218;3.452;2022-07-29T03:10:42;3.50;;;2.60;;
20870;SDS011;10595;51.218;3.452;2022-07-29T03:11:33;4.23;;;2.43;;
20870;SDS011;10595;51.218;3.452;2022-07-29T03:12:25;3.50;;;2.07;;
20870;SDS011;10595;51.218;3.452;2022-07-29T03:13:16;5.93;;;2.50;;
20870;SDS011;10595;51.218;3.452;2022-07-29T03:14:08;6.13;;;2.40;;
20870;SDS011;10595;51.218;3.452;2022-07-29T03:14:59;3.87;;;2.80;;
20870;SDS011;10595;51.218;3.452;2022-07-29T03:15:52;4.53;;;3.17;;
20870;SDS011;10595;51.218;3.452;2022-07-29T03:16:44;7.30;;;2.70;;
20870;SDS011;10595;51.218;3.452;2022-07-29T03:17:35;5.27;;;2.80;;
20870;SDS011;10595;51.218;3.452;2022-07-29T03:18:27;6.43;;;2.87;;
20870;SDS011;10595;51.218;3.452;2022-07-29T03:19:19;3.80;;;2.57;;
20870;SDS011;10595;51.218;3.452;2022-07-29T03:20:10;4.43;;;3.00;;
20870;SDS011;10595;51.218;3.452;2022-07-29T03:21:03;3.43;;;2.80;;
20870;SDS011;10595;51.218;3.452;2022-07-29T03:21:55;4.03;;;3.00;;
20870;SDS011;10595;51.218;3.452;2022-07-29T03:22:47;4.23;;;2.63;;
20870;SDS011;10595;51.218;3.452;2022-07-29T03:23:39;3.03;;;2.50;;
20870;SDS011;10595;51.218;3.452;2022-07-29T03:24:34;5.10;;;2.70;;
20870;SDS011;10595;51.218;3.452;2022-07-29T03:25:25;4.00;;;2.63;;
20870;SDS011;10595;51.218;3.452;2022-07-29T03:26:17;4.90;;;2.87;;
20870;SDS011;10595;51.218;3.452;2022-07-29T03:27:10;8.33;;;3.20;;
20870;SDS011;10595;51.218;3.452;2022-07-29T03:28:00;4.03;;;2.43;;
20870;SDS011;10595;51.218;3.452;2022-07-29T03:28:52;3.00;;;2.70;;
20870;SDS011;10595;51.218;3.452;2022-07-29T03:29:42;3.13;;;2.60;;
20870;SDS011;10595;51.218;3.452;2022-07-29T03:30:33;3.77;;;2.63;;
20870;SDS011;10595;51.218;3.452;2022-07-29T03:31:24;7.83;;;3.03;;
20870;SDS011;10595;51.218;3.452;2022-07-29T03:32:16;4.47;;;2.37;;
20870;SDS011;10595;51.218;3.452;2022-07-29T03:33:07;3.10;;;2.73;;
20870;SDS011;10595;51.218;3.452;2022-07-29T03:33:58;4.37;;;2.50;;
20870;SDS011;10595;51.218;3.452;2022-07-29T03:34:49;4.80;;;2.50;;
20870;SDS011;10595;51.218;3.452;2022-07-29T03:35:40;5.23;;;2.90;;
20870;SDS011;10595;51.218;3.452;2022-07-29T03:36:31;3.93;;;2.67;;
20870;SDS011;10595;51.218;3.452;2022-07-29T03:37:23;3.73;;;2.30;;
20870;SDS011;10595;51.218;3.452;2022-07-29T03:38:13;3.77;;;2.50;;
20870;SDS011;10595;51.218;3.452;2022-07-29T03:39:05;7.37;;;2.73;;
20870;SDS011;10595;51.218;3.452;2022-07-29T03:39:56;5.40;;;2.70;;
20870;SDS011;10595;51.218;3.452;2022-07-29T03:40:48;3.27;;;2.50;;
20870;SDS011;10595;51.218;3.452;2022-07-29T03:41:40;3.77;;;2.37;;
20870;SDS011;10595;51.218;3.452;2022-07-29T03:42:32;4.07;;;2.70;;
20870;SDS011;10595;51.218;3.452;2022-07-29T03:43:24;4.67;;;2.40;;
20870;SDS011;10595;51.218;3.452;2022-07-29T03:44:16;3.50;;;2.60;;
20870;SDS011;10595;51.218;3.452;2022-07-29T03:45:08;3.07;;;2.63;;
20870;SDS011;10595;51.218;3.452;2022-07-29T03:46:01;4.30;;;2.80;;
20870;SDS011;10595;51.218;3.452;2022-07-29T03:46:52;4.03;;;2.60;;
20870;SDS011;10595;51.218;3.452;2022-07-29T03:47:47;6.63;;;2.70;;
20870;SDS011;10595;51.218;3.452;2022-07-29T03:48:39;5.20;;;2.53;;
20870;SDS011;10595;51.218;3.452;2022-07-29T03:49:33;11.40;;;2.90;;
20870;SDS011;10595;51.218;3.452;2022-07-29T03:50:26;3.40;;;2.60;;
20870;SDS011;10595;51.218;3.452;2022-07-29T03:51:17;3.87;;;2.60;;
20870;SDS011;10595;51.218;3.452;2022-07-29T03:52:08;3.47;;;2.50;;
20870;SDS011;10595;51.218;3.452;2022-07-29T03:53:00;4.13;;;2.70;;
20870;SDS011;10595;51.218;3.452;2022-07-29T03:53:50;3.80;;;2.90;;
20870;SDS011;10595;51.218;3.452;2022-07-29T03:54:41;3.87;;;2.37;;
20870;SDS011;10595;51.218;3.452;2022-07-29T03:55:33;3.10;;;2.80;;
20870;SDS011;10595;51.218;3.452;2022-07-29T03:56:26;5.67;;;2.67;;
20870;SDS011;10595;51.218;3.452;2022-07-29T03:57:18;3.10;;;2.40;;
20870;SDS011;10595;51.218;3.452;2022-07-29T03:58:10;4.10;;;2.60;;
20870;SDS011;10595;51.218;3.452;2022-07-29T03:59:02;6.20;;;2.67;;
20870;SDS011;10595;51.218;3.452;2022-07-29T03:59:53;4.27;;;2.70;;
20870;SDS011;10595;51.218;3.452;2022-07-29T04:00:44;6.47;;;2.90;;
20870;SDS011;10595;51.218;3.452;2022-07-29T04:01:36;3.53;;;2.63;;
20870;SDS011;10595;51.218;3.452;2022-07-29T04:02:28;4.53;;;2.67;;
20870;SDS011;10595;51.218;3.452;2022-07-29T04:03:20;3.40;;;2.50;;
20870;SDS011;10595;51.218;3.452;2022-07-29T04:04:11;3.80;;;3.00;;
20870;SDS011;10595;51.218;3.452;2022-07-29T04:05:02;4.27;;;2.83;;
20870;SDS011;10595;51.218;3.452;2022-07-29T04:05:58;4.30;;;2.67;;
20870;SDS011;10595;51.218;3.452;2022-07-29T04:06:48;4.47;;;3.03;;
20870;SDS011;10595;51.218;3.452;2022-07-29T04:07:40;3.83;;;2.50;;
20870;SDS011;10595;51.218;3.452;2022-07-29T04:08:30;5.67;;;2.77;;
20870;SDS011;10595;51.218;3.452;2022-07-29T04:09:22;3.47;;;2.40;;
20870;SDS011;10595;51.218;3.452;2022-07-29T04:10:13;5.23;;;2.50;;
20870;SDS011;10595;51.218;3.452;2022-07-29T04:11:05;5.53;;;3.00;;
20870;SDS011;10595;51.218;3.452;2022-07-29T04:11:56;4.70;;;2.70;;
20870;SDS011;10595;51.218;3.452;2022-07-29T04:12:47;3.67;;;2.50;;
20870;SDS011;10595;51.218;3.452;2022-07-29T04:13:38;5.33;;;2.90;;
20870;SDS011;10595;51.218;3.452;2022-07-29T04:14:30;3.70;;;2.67;;
20870;SDS011;10595;51.218;3.452;2022-07-29T04:15:21;4.90;;;2.47;;
20870;SDS011;10595;51.218;3.452;2022-07-29T04:16:13;4.03;;;2.60;;
20870;SDS011;10595;51.218;3.452;2022-07-29T04:17:03;5.23;;;2.73;;
20870;SDS011;10595;51.218;3.452;2022-07-29T04:17:55;5.20;;;2.83;;
20870;SDS011;10595;51.218;3.452;2022-07-29T04:18:47;2.53;;;2.33;;
20870;SDS011;10595;51.218;3.452;2022-07-29T04:19:38;5.53;;;2.60;;
20870;SDS011;10595;51.218;3.452;2022-07-29T04:20:29;3.10;;;2.80;;
20870;SDS011;10595;51.218;3.452;2022-07-29T04:21:20;2.97;;;2.60;;
20870;SDS011;10595;51.218;3.452;2022-07-29T04:22:11;3.67;;;2.63;;
20870;SDS011;10595;51.218;3.452;2022-07-29T04:23:03;6.50;;;3.10;;
20870;SDS011;10595;51.218;3.452;2022-07-29T04:24:03;4.80;;;2.73;;
20870;SDS011;10595;51.218;3.452;2022-07-29T04:24:55;3.93;;;2.53;;
20870;SDS011;10595;51.218;3.452;2022-07-29T04:25:46;3.83;;;2.70;;
20870;SDS011;10595;51.218;3.452;2022-07-29T04:26:37;4.23;;;2.50;;
20870;SDS011;10595;51.218;3.452;2022-07-29T04:27:28;4.63;;;2.80;;
20870;SDS011;10595;51.218;3.452;2022-07-29T04:28:19;4.50;;;2.93;;
20870;SDS011;10595;51.218;3.452;2022-07-29T04:29:10;5.37;;;2.90;;
20870;SDS011;10595;51.218;3.452;2022-07-29T04:30:02;3.43;;;2.50;;
20870;SDS011;10595;51.218;3.452;2022-07-29T04:30:53;4.73;;;2.80;;
20870;SDS011;10595;51.218;3.452;2022-07-29T04:31:45;4.57;;;2.80;;
20870;SDS011;10595;51.218;3.452;2022-07-29T04:32:35;5.27;;;3.00;;
20870;SDS011;10595;51.218;3.452;2022-07-29T04:33:27;6.83;;;2.90;;
20870;SDS011;10595;51.218;3.452;2022-07-29T04:34:18;6.33;;;3.00;;
20870;SDS011;10595;51.218;3.452;2022-07-29T04:35:10;5.17;;;3.07;;
20870;SDS011;10595;51.218;3.452;2022-07-29T04:36:00;3.23;;;2.40;;
20870;SDS011;10595;51.218;3.452;2022-07-29T04:36:52;5.23;;;3.07;;
20870;SDS011;10595;51.218;3.452;2022-07-29T04:37:42;4.73;;;2.70;;
20870;SDS011;10595;51.218;3.452;2022-07-29T04:38:34;5.30;;;2.90;;
20870;SDS011;10595;51.218;3.452;2022-07-29T04:39:24;6.37;;;3.30;;
20870;SDS011;10595;51.218;3.452;2022-07-29T04:40:16;6.67;;;3.20;;
20870;SDS011;10595;51.218;3.452;2022-07-29T04:41:07;4.63;;;3.03;;
20870;SDS011;10595;51.218;3.452;2022-07-29T04:41:58;5.10;;;2.90;;
20870;SDS011;10595;51.218;3.452;2022-07-29T04:42:49;4.67;;;3.00;;
20870;SDS011;10595;51.218;3.452;2022-07-29T04:43:40;5.97;;;3.37;;
20870;SDS011;10595;51.218;3.452;2022-07-29T04:44:31;7.17;;;3.47;;
20870;SDS011;10595;51.218;3.452;2022-07-29T04:45:22;4.67;;;3.30;;
20870;SDS011;10595;51.218;3.452;2022-07-29T04:46:13;6.33;;;3.20;;
20870;SDS011;10595;51.218;3.452;2022-07-29T04:47:07;4.90;;;3.10;;
20870;SDS011;10595;51.218;3.452;2022-07-29T04:47:57;4.87;;;3.30;;
20870;SDS011;10595;51.218;3.452;2022-07-29T04:48:49;5.07;;;3.10;;
20870;SDS011;10595;51.218;3.452;2022-07-29T04:49:41;6.93;;;3.10;;
20870;SDS011;10595;51.218;3.452;2022-07-29T04:50:32;8.40;;;3.90;;
20870;SDS011;10595;51.218;3.452;2022-07-29T04:51:23;6.07;;;3.20;;
20870;SDS011;10595;51.218;3.452;2022-07-29T04:52:15;6.07;;;3.30;;
20870;SDS011;10595;51.218;3.452;2022-07-29T04:53:05;8.63;;;3.30;;
20870;SDS011;10595;51.218;3.452;2022-07-29T04:53:57;11.37;;;3.40;;
20870;SDS011;10595;51.218;3.452;2022-07-29T04:54:48;5.40;;;3.33;;
20870;SDS011;10595;51.218;3.452;2022-07-29T04:55:39;8.03;;;3.73;;
20870;SDS011;10595;51.218;3.452;2022-07-29T04:56:30;4.30;;;2.93;;
20870;SDS011;10595;51.218;3.452;2022-07-29T04:57:21;7.33;;;3.43;;
20870;SDS011;10595;51.218;3.452;2022-07-29T04:58:12;4.63;;;3.20;;
20870;SDS011;10595;51.218;3.452;2022-07-29T04:59:03;5.33;;;3.30;;
20870;SDS011;10595;51.218;3.452;2022-07-29T04:59:54;7.37;;;3.20;;
20870;SDS011;10595;51.218;3.452;2022-07-29T05:00:45;6.17;;;3.43;;
20870;SDS011;10595;51.218;3.452;2022-07-29T05:01:36;7.40;;;3.80;;
20870;SDS011;10595;51.218;3.452;2022-07-29T05:02:27;5.50;;;3.60;;
20870;SDS011;10595;51.218;3.452;2022-07-29T05:03:18;6.33;;;3.70;;
20870;SDS011;10595;51.218;3.452;2022-07-29T05:04:09;4.20;;;3.50;;
20870;SDS011;10595;51.218;3.452;2022-07-29T05:05:01;4.33;;;3.27;;
20870;SDS011;10595;51.218;3.452;2022-07-29T05:05:53;9.87;;;3.73;;
20870;SDS011;10595;51.218;3.452;2022-07-29T05:06:43;4.50;;;2.80;;
20870;SDS011;10595;51.218;3.452;2022-07-29T05:07:35;5.57;;;3.20;;
20870;SDS011;10595;51.218;3.452;2022-07-29T05:08:25;6.13;;;3.70;;
20870;SDS011;10595;51.218;3.452;2022-07-29T05:09:17;5.47;;;3.20;;
20870;SDS011;10595;51.218;3.452;2022-07-29T05:10:08;4.77;;;3.10;;
20870;SDS011;10595;51.218;3.452;2022-07-29T05:11:01;6.30;;;3.30;;
20870;SDS011;10595;51.218;3.452;2022-07-29T05:11:52;4.57;;;3.17;;
20870;SDS011;10595;51.218;3.452;2022-07-29T05:12:44;6.93;;;3.60;;
20870;SDS011;10595;51.218;3.452;2022-07-29T05:13:34;3.43;;;2.87;;
20870;SDS011;10595;51.218;3.452;2022-07-29T05:14:26;3.97;;;3.40;;
20870;SDS011;10595;51.218;3.452;2022-07-29T05:15:16;3.70;;;2.87;;
20870;SDS011;10595;51.218;3.452;2022-07-29T05:16:08;5.13;;;3.40;;